Time;durP1;ratioP1;P1;durP2;ratioP2;P2;SDS_P1;SDS_P2;PMS_P1;PMS_P2;Temp;Humidity;BMP_temperature;BMP_pressure;BME280_temperature;BME280_humidity;BME280_pressure;Samples;Min_cycle;Max_cycle;Signal;HPM_P1;HPM_P2
2023/04/18 00:00:27;;;;;;;9.60;5.93;;;9.40;99.90;;;;;;4973512;28;20030;-75
2023/04/18 00:02:53;;;;;;;12.80;6.65;;;9.40;99.90;;;;;;4973962;28;20173;-75
2023/04/18 00:05:20;;;;;;;9.02;5.95;;;9.40;99.90;;;;;;4990082;28;20457;-75
2023/04/18 00:07:46;;;;;;;10.85;6.57;;;9.40;99.90;;;;;;4973058;28;20031;-75
2023/04/18 00:10:12;;;;;;;8.85;6.13;;;9.40;99.90;;;;;;4972920;28;20027;-76
2023/04/18 00:12:38;;;;;;;8.18;5.75;;;9.40;99.90;;;;;;4973852;28;20066;-75
2023/04/18 00:15:07;;;;;;;10.13;6.35;;;9.40;99.90;;;;;;4973276;28;20442;-75
2023/04/18 00:17:34;;;;;;;10.55;6.13;;;9.40;99.90;;;;;;4974002;28;20031;-76
2023/04/18 00:20:05;;;;;;;9.68;6.30;;;9.30;99.90;;;;;;4974273;28;20029;-75
2023/04/18 00:22:31;;;;;;;9.65;6.55;;;9.30;99.90;;;;;;4972825;28;20035;-75
2023/04/18 00:24:57;;;;;;;9.43;6.30;;;9.30;99.90;;;;;;4989331;28;20039;-75
2023/04/18 00:27:22;;;;;;;9.43;6.20;;;9.30;99.90;;;;;;4974213;28;20030;-75
2023/04/18 00:29:48;;;;;;;9.63;6.35;;;9.30;99.90;;;;;;4988444;28;20037;-76
2023/04/18 00:32:14;;;;;;;9.82;6.45;;;9.30;99.90;;;;;;4989122;28;20519;-75
2023/04/18 00:34:40;;;;;;;9.93;5.90;;;9.30;99.90;;;;;;4973626;28;20407;-75
2023/04/18 00:37:06;;;;;;;11.88;6.10;;;9.20;99.90;;;;;;4973881;28;20037;-75
2023/04/18 00:39:34;;;;;;;10.57;6.32;;;9.20;99.90;;;;;;4971983;28;20022;-75
2023/04/18 00:42:00;;;;;;;10.10;6.07;;;9.20;99.90;;;;;;4973560;28;20096;-75
2023/04/18 00:44:26;;;;;;;9.40;6.15;;;9.20;99.90;;;;;;4988965;28;20061;-75
2023/04/18 00:46:51;;;;;;;8.90;6.18;;;9.20;99.90;;;;;;4973140;28;20681;-75
2023/04/18 00:49:17;;;;;;;9.98;6.20;;;9.20;99.90;;;;;;4988759;28;20042;-75
2023/04/18 00:51:43;;;;;;;10.88;6.07;;;9.10;99.90;;;;;;4988299;28;20023;-75
2023/04/18 00:54:11;;;;;;;9.40;6.47;;;9.10;99.90;;;;;;4972346;28;20484;-75
2023/04/18 00:56:37;;;;;;;11.55;6.95;;;9.10;99.90;;;;;;4971588;28;20042;-74
2023/04/18 00:59:04;;;;;;;14.23;6.63;;;9.10;99.90;;;;;;4972281;28;20026;-75
2023/04/18 01:01:30;;;;;;;12.18;6.90;;;9.10;99.90;;;;;;4973458;28;20105;-75
2023/04/18 01:03:56;;;;;;;9.52;6.50;;;9.10;99.90;;;;;;4972953;28;20702;-75
2023/04/18 01:06:22;;;;;;;12.15;6.32;;;9.10;99.90;;;;;;4988478;28;20030;-75
2023/04/18 01:08:48;;;;;;;10.23;6.47;;;9.00;99.90;;;;;;4971874;28;20023;-75
2023/04/18 01:11:13;;;;;;;10.38;6.88;;;9.00;99.90;;;;;;4988493;28;20034;-75
2023/04/18 01:13:39;;;;;;;10.35;6.60;;;9.10;99.90;;;;;;4971768;28;20043;-75
2023/04/18 01:16:05;;;;;;;10.13;6.60;;;9.00;99.90;;;;;;4988542;28;20030;-75
2023/04/18 01:18:31;;;;;;;10.48;5.97;;;9.00;99.90;;;;;;4973688;28;20408;-75
2023/04/18 01:20:59;;;;;;;10.43;6.65;;;9.00;99.90;;;;;;4972687;28;20023;-75
2023/04/18 01:23:25;;;;;;;8.85;5.82;;;9.00;99.90;;;;;;4973229;28;20090;-75
2023/04/18 01:25:50;;;;;;;11.35;6.95;;;9.00;99.90;;;;;;4972596;28;20031;-75
2023/04/18 01:28:18;;;;;;;10.52;6.80;;;9.00;99.90;;;;;;4973211;28;20551;-75
2023/04/18 01:30:44;;;;;;;11.13;6.38;;;9.00;99.90;;;;;;4972652;28;20484;-75
2023/04/18 01:33:09;;;;;;;9.95;6.90;;;9.00;99.90;;;;;;4988248;28;20027;-75
2023/04/18 01:35:35;;;;;;;10.55;7.03;;;9.00;99.90;;;;;;4988174;28;20062;-75
2023/04/18 01:38:01;;;;;;;12.68;6.75;;;9.00;99.90;;;;;;4971946;28;20033;-75
2023/04/18 01:40:27;;;;;;;12.55;7.72;;;9.00;99.90;;;;;;4988153;28;20133;-75
2023/04/18 01:42:52;;;;;;;9.93;6.68;;;9.10;99.90;;;;;;4972560;28;20039;-75
2023/04/18 01:45:19;;;;;;;12.25;7.47;;;9.10;99.90;;;;;;4973016;28;20050;-75
2023/04/18 01:47:45;;;;;;;10.52;6.63;;;9.10;99.90;;;;;;4972573;28;20050;-75
2023/04/18 01:50:11;;;;;;;9.93;6.35;;;9.10;99.90;;;;;;4971810;28;20022;-75
2023/04/18 01:52:37;;;;;;;9.43;6.38;;;9.10;99.90;;;;;;4971371;28;20407;-74
2023/04/18 01:55:03;;;;;;;9.50;6.00;;;9.20;99.90;;;;;;4973447;28;20035;-75
2023/04/18 01:57:29;;;;;;;11.05;6.43;;;9.20;99.90;;;;;;4972103;28;20074;-75
2023/04/18 01:59:55;;;;;;;10.82;6.32;;;9.20;99.90;;;;;;4976562;28;20046;-75
2023/04/18 02:02:21;;;;;;;8.90;5.88;;;9.20;99.90;;;;;;4991534;28;20077;-76
2023/04/18 02:04:46;;;;;;;9.93;6.18;;;9.20;99.90;;;;;;4990886;28;20064;-75
2023/04/18 02:07:12;;;;;;;11.27;6.78;;;9.20;99.90;;;;;;4991190;28;20026;-75
2023/04/18 02:09:38;;;;;;;11.45;6.95;;;9.20;99.90;;;;;;4989978;28;20049;-75
2023/04/18 02:12:03;;;;;;;10.43;6.45;;;9.30;99.90;;;;;;4990801;28;20042;-75
2023/04/18 02:14:31;;;;;;;14.30;6.78;;;9.20;99.90;;;;;;4992366;28;20459;-76
2023/04/18 02:16:57;;;;;;;13.43;6.80;;;9.30;99.90;;;;;;4990433;28;20037;-76
2023/04/18 02:19:23;;;;;;;12.15;6.63;;;9.30;99.90;;;;;;4992046;28;20037;-75
2023/04/18 02:21:49;;;;;;;9.02;6.15;;;9.30;99.90;;;;;;4991797;28;20384;-75
2023/04/18 02:24:15;;;;;;;12.32;6.72;;;9.30;99.90;;;;;;4991982;28;20046;-75
2023/04/18 02:26:41;;;;;;;11.05;6.20;;;9.30;99.90;;;;;;4991785;28;20360;-75
2023/04/18 02:29:06;;;;;;;12.65;6.90;;;9.30;99.90;;;;;;4991843;28;20031;-75
2023/04/18 02:31:32;;;;;;;9.60;6.32;;;9.30;99.90;;;;;;4991048;28;20023;-75
2023/04/18 02:33:58;;;;;;;10.10;6.57;;;9.30;99.90;;;;;;4992734;28;20030;-75
2023/04/18 02:36:26;;;;;;;9.85;5.88;;;9.30;99.90;;;;;;4994470;28;20042;-75
2023/04/18 02:38:53;;;;;;;10.20;6.53;;;9.30;99.90;;;;;;5010376;28;20023;-75
2023/04/18 02:41:18;;;;;;;11.30;6.22;;;9.30;99.90;;;;;;4995846;28;20073;-75
2023/04/18 02:43:44;;;;;;;12.13;6.57;;;9.20;99.90;;;;;;4995142;28;20062;-75
2023/04/18 02:46:10;;;;;;;13.15;6.72;;;9.20;99.90;;;;;;4996012;28;20394;-75
2023/04/18 02:48:36;;;;;;;10.63;6.57;;;9.30;99.90;;;;;;4995941;28;20027;-75
2023/04/18 02:51:06;;;;;;;12.82;7.28;;;9.30;99.90;;;;;;4995230;28;20035;-75
2023/04/18 02:53:32;;;;;;;10.32;6.90;;;9.20;99.90;;;;;;4994558;28;20120;-75
2023/04/18 02:55:58;;;;;;;9.43;6.47;;;9.20;99.90;;;;;;5010291;28;20460;-75
2023/04/18 02:58:24;;;;;;;12.80;6.85;;;9.20;99.90;;;;;;4995734;28;20022;-76
2023/04/18 03:00:52;;;;;;;10.02;6.47;;;9.20;99.90;;;;;;4995056;28;20037;-74
2023/04/18 03:03:18;;;;;;;13.85;6.20;;;9.30;99.90;;;;;;4994506;28;20034;-75
2023/04/18 03:05:43;;;;;;;12.05;6.00;;;9.30;99.90;;;;;;4994930;28;20037;-75
2023/04/18 03:08:09;;;;;;;10.07;6.93;;;9.30;99.90;;;;;;4995218;28;20546;-75
2023/04/18 03:10:34;;;;;;;13.82;7.25;;;9.20;99.90;;;;;;4995355;28;20400;-75
2023/04/18 03:13:00;;;;;;;13.00;7.40;;;9.20;99.90;;;;;;4993556;28;20085;-75
2023/04/18 03:15:26;;;;;;;12.77;6.75;;;9.20;99.90;;;;;;4995447;28;20026;-75
2023/04/18 03:17:52;;;;;;;11.82;6.57;;;9.20;99.90;;;;;;4993568;28;20054;-76
2023/04/18 03:20:18;;;;;;;10.38;6.50;;;9.20;99.90;;;;;;5010370;28;20542;-75
2023/04/18 03:22:43;;;;;;;12.50;6.95;;;9.20;99.90;;;;;;4994546;28;20539;-75
2023/04/18 03:25:10;;;;;;;11.13;6.80;;;9.20;99.90;;;;;;4995043;28;20054;-75
2023/04/18 03:27:35;;;;;;;10.15;6.63;;;9.20;99.90;;;;;;5009828;28;20065;-76
2023/04/18 03:30:01;;;;;;;12.57;7.22;;;9.20;99.90;;;;;;5009611;28;20505;-75
2023/04/18 03:32:27;;;;;;;11.25;6.45;;;9.30;99.90;;;;;;4995057;28;20061;-75
2023/04/18 03:34:52;;;;;;;11.93;6.28;;;9.30;99.90;;;;;;5009512;28;20034;-75
2023/04/18 03:37:18;;;;;;;12.68;6.97;;;9.20;99.90;;;;;;4994637;28;20026;-76
2023/04/18 03:39:44;;;;;;;9.40;6.75;;;9.30;99.90;;;;;;5009302;28;20100;-75
2023/04/18 03:42:09;;;;;;;12.23;6.57;;;9.30;99.90;;;;;;5010000;28;20066;-75
2023/04/18 03:44:35;;;;;;;10.45;6.65;;;9.20;99.90;;;;;;4992404;28;20041;-76
2023/04/18 03:47:00;;;;;;;12.13;6.85;;;9.20;99.90;;;;;;5008756;28;20080;-75
2023/04/18 03:49:27;;;;;;;11.50;7.22;;;9.20;99.90;;;;;;4993587;28;20137;-75
2023/04/18 03:51:53;;;;;;;13.45;6.72;;;9.20;99.90;;;;;;4994059;28;20101;-75
2023/04/18 03:54:18;;;;;;;13.00;6.78;;;9.20;99.90;;;;;;4994541;28;20452;-75
2023/04/18 03:56:44;;;;;;;10.20;6.55;;;9.30;99.90;;;;;;4992397;28;20030;-75
2023/04/18 03:59:10;;;;;;;10.63;6.60;;;9.20;99.90;;;;;;5009649;28;20073;-75
2023/04/18 04:01:36;;;;;;;13.45;7.35;;;9.20;99.90;;;;;;4994488;28;20419;-75
2023/04/18 04:04:02;;;;;;;12.07;7.35;;;9.30;99.90;;;;;;4993826;28;20109;-75
2023/04/18 04:06:28;;;;;;;10.32;6.90;;;9.30;99.90;;;;;;4994444;28;20027;-76
2023/04/18 04:08:54;;;;;;;12.75;6.90;;;9.20;99.90;;;;;;4992563;28;20026;-75
2023/04/18 04:11:20;;;;;;;11.02;6.35;;;9.30;99.90;;;;;;4994400;28;20084;-75
2023/04/18 04:13:46;;;;;;;13.02;7.10;;;9.30;99.90;;;;;;5008914;28;20042;-75
2023/04/18 04:16:12;;;;;;;10.52;6.47;;;9.30;99.90;;;;;;4993136;28;20542;-75
2023/04/18 04:18:37;;;;;;;10.35;6.20;;;9.30;99.90;;;;;;5009520;28;20061;-75
2023/04/18 04:21:05;;;;;;;10.32;6.95;;;9.20;99.90;;;;;;4992186;28;20080;-75
2023/04/18 04:23:32;;;;;;;10.48;6.72;;;9.20;99.90;;;;;;5009256;28;20034;-75
2023/04/18 04:26:01;;;;;;;11.68;6.45;;;9.20;99.90;;;;;;5008587;28;20129;-75
2023/04/18 04:28:27;;;;;;;12.68;6.88;;;9.20;99.90;;;;;;4994144;28;20395;-75
2023/04/18 04:30:54;;;;;;;9.38;6.30;;;9.20;99.90;;;;;;5008544;28;20063;-75
2023/04/18 04:33:23;;;;;;;11.50;6.18;;;9.20;99.90;;;;;;4992816;28;20037;-75
2023/04/18 04:35:51;;;;;;;12.00;6.40;;;9.20;99.90;;;;;;4993278;28;20032;-75
2023/04/18 04:38:18;;;;;;;9.73;6.22;;;9.20;99.90;;;;;;4992798;28;20027;-76
2023/04/18 04:40:45;;;;;;;11.20;6.32;;;9.20;99.90;;;;;;4993745;28;20456;-75
2023/04/18 04:43:11;;;;;;;12.52;6.65;;;9.20;99.90;;;;;;4991780;28;20030;-75
2023/04/18 04:45:38;;;;;;;10.00;5.93;;;9.20;99.90;;;;;;4993493;28;20057;-75
2023/04/18 04:48:04;;;;;;;11.88;6.38;;;9.20;99.90;;;;;;4993342;28;20036;-75
2023/04/18 04:50:32;;;;;;;10.25;6.30;;;9.20;99.90;;;;;;4993635;28;20026;-75
2023/04/18 04:52:57;;;;;;;12.30;6.18;;;9.30;99.90;;;;;;4991732;28;20038;-75
2023/04/18 04:55:23;;;;;;;13.07;6.57;;;9.30;99.90;;;;;;5008517;28;20018;-75
2023/04/18 04:57:49;;;;;;;9.80;6.47;;;9.20;99.90;;;;;;4992951;28;20022;-75
2023/04/18 05:00:19;;;;;;;9.88;6.18;;;9.20;99.90;;;;;;4993368;28;20041;-75
2023/04/18 05:02:46;;;;;;;10.25;6.25;;;9.20;99.90;;;;;;4993449;28;20030;-75
2023/04/18 05:05:12;;;;;;;11.55;6.82;;;9.30;99.90;;;;;;4993431;28;20057;-75
2023/04/18 05:07:37;;;;;;;10.65;6.07;;;9.20;99.90;;;;;;4993442;28;20437;-75
2023/04/18 05:10:03;;;;;;;10.48;6.35;;;9.30;99.90;;;;;;4992843;28;20038;-75
2023/04/18 05:12:30;;;;;;;10.95;6.57;;;9.40;99.90;;;;;;5008139;28;20026;-75
2023/04/18 05:14:55;;;;;;;12.70;6.78;;;9.40;99.90;;;;;;4993079;28;20034;-76
2023/04/18 05:17:21;;;;;;;12.60;6.07;;;9.30;99.90;;;;;;5008514;28;20034;-76
2023/04/18 05:19:47;;;;;;;10.07;6.20;;;9.30;99.90;;;;;;5008124;28;20419;-75
2023/04/18 05:22:12;;;;;;;9.85;6.43;;;9.30;99.90;;;;;;5007641;28;20022;-76
2023/04/18 05:24:38;;;;;;;12.32;6.50;;;9.20;99.90;;;;;;4993285;28;20105;-75
2023/04/18 05:27:04;;;;;;;10.60;6.57;;;9.30;99.90;;;;;;4992609;28;20472;-75
2023/04/18 05:29:30;;;;;;;10.50;6.07;;;9.30;99.90;;;;;;4992067;28;20092;-75
2023/04/18 05:31:56;;;;;;;9.15;6.07;;;9.30;99.90;;;;;;4992628;28;20456;-75
2023/04/18 05:34:21;;;;;;;10.43;6.28;;;9.20;99.90;;;;;;4993005;28;20076;-75
2023/04/18 05:36:47;;;;;;;11.40;6.68;;;9.20;99.90;;;;;;4991771;28;20030;-75
2023/04/18 05:39:13;;;;;;;12.43;6.88;;;9.30;99.90;;;;;;5007714;28;20031;-75
2023/04/18 05:41:38;;;;;;;14.30;7.72;;;9.20;99.90;;;;;;4992622;28;20506;-75
2023/04/18 05:44:04;;;;;;;11.52;7.25;;;9.20;99.90;;;;;;4992368;28;20049;-75
2023/04/18 05:46:30;;;;;;;13.60;7.45;;;9.20;99.90;;;;;;4991591;28;20050;-75
2023/04/18 05:48:55;;;;;;;12.18;6.53;;;9.20;99.90;;;;;;4992445;28;20035;-75
2023/04/18 05:51:21;;;;;;;13.40;7.13;;;9.20;99.90;;;;;;4991592;28;20489;-75
2023/04/18 05:53:47;;;;;;;13.73;6.90;;;9.20;99.90;;;;;;4992748;28;20042;-75
2023/04/18 05:56:14;;;;;;;11.20;6.20;;;9.10;99.90;;;;;;5007281;28;20022;-75
2023/04/18 05:58:39;;;;;;;12.43;6.88;;;9.10;99.90;;;;;;5008122;28;20030;-75
2023/04/18 06:01:05;;;;;;;9.68;6.35;;;9.10;99.90;;;;;;4992363;28;20475;-75
2023/04/18 06:03:31;;;;;;;10.57;6.45;;;9.10;99.90;;;;;;4991661;28;20041;-75
2023/04/18 06:05:57;;;;;;;11.48;6.65;;;9.10;99.90;;;;;;4992082;28;20054;-76
2023/04/18 06:08:22;;;;;;;10.55;6.28;;;9.20;99.90;;;;;;5009439;28;20471;-75
2023/04/18 06:10:48;;;;;;;11.32;6.30;;;9.10;99.90;;;;;;4995361;28;20031;-75
2023/04/18 06:13:13;;;;;;;13.43;6.65;;;9.20;99.90;;;;;;4994722;28;20030;-75
2023/04/18 06:15:39;;;;;;;12.10;6.70;;;9.10;99.90;;;;;;4995253;28;20450;-75
2023/04/18 06:18:05;;;;;;;12.15;6.38;;;9.20;99.90;;;;;;4995958;28;20030;-75
2023/04/18 06:20:31;;;;;;;14.15;6.43;;;9.20;99.90;;;;;;4995167;28;20038;-75
2023/04/18 06:22:56;;;;;;;13.13;6.63;;;9.30;99.90;;;;;;4996196;28;20542;-75
2023/04/18 06:25:22;;;;;;;12.00;7.00;;;9.20;99.90;;;;;;4983126;28;20029;-75
2023/04/18 06:27:48;;;;;;;10.65;6.10;;;9.20;99.90;;;;;;4994804;28;20031;-75
2023/04/18 06:30:14;;;;;;;11.02;6.22;;;9.30;99.90;;;;;;4993905;28;20080;-75
2023/04/18 06:32:39;;;;;;;14.18;6.55;;;9.20;99.90;;;;;;4994705;28;20026;-75
2023/04/18 06:35:05;;;;;;;13.93;6.95;;;9.20;99.90;;;;;;4995286;28;20471;-76
2023/04/18 06:37:31;;;;;;;11.02;6.80;;;9.20;99.90;;;;;;4994670;28;20094;-75
2023/04/18 06:39:57;;;;;;;12.43;6.72;;;9.20;99.90;;;;;;4993733;28;20061;-75
2023/04/18 06:42:23;;;;;;;11.35;6.55;;;9.30;99.90;;;;;;4995795;28;20022;-75
2023/04/18 06:44:49;;;;;;;11.52;6.38;;;9.30;99.90;;;;;;4994058;28;20472;-75
2023/04/18 06:47:15;;;;;;;11.63;6.60;;;9.30;99.90;;;;;;4993696;28;20046;-75
2023/04/18 06:49:40;;;;;;;9.15;5.43;;;9.40;99.90;;;;;;4995575;28;20474;-76
2023/04/18 06:52:06;;;;;;;13.70;6.90;;;9.40;99.90;;;;;;4993692;28;20464;-75
2023/04/18 06:54:31;;;;;;;12.43;6.07;;;9.50;99.90;;;;;;4994623;28;20031;-75
2023/04/18 06:56:58;;;;;;;10.00;6.30;;;9.60;99.90;;;;;;4993932;28;20027;-75
2023/04/18 06:59:23;;;;;;;13.88;6.68;;;9.70;99.90;;;;;;4994177;28;20023;-75
2023/04/18 07:01:50;;;;;;;11.05;6.43;;;9.80;99.90;;;;;;4995357;28;20081;-75
2023/04/18 07:04:15;;;;;;;13.32;6.72;;;9.80;99.90;;;;;;4994264;28;20053;-75
2023/04/18 07:06:41;;;;;;;15.35;7.18;;;9.70;99.90;;;;;;4995211;28;20030;-75
2023/04/18 07:09:07;;;;;;;10.32;6.88;;;9.70;99.90;;;;;;4994560;28;20105;-75
2023/04/18 07:11:32;;;;;;;13.27;6.57;;;9.60;99.90;;;;;;4994760;28;20026;-75
2023/04/18 07:13:58;;;;;;;11.18;6.75;;;9.60;99.90;;;;;;4993094;28;20562;-76
2023/04/18 07:16:24;;;;;;;11.75;6.90;;;9.60;99.90;;;;;;4994902;28;20037;-75
2023/04/18 07:18:50;;;;;;;13.25;6.68;;;9.70;99.90;;;;;;4994597;28;20022;-75
2023/04/18 07:21:16;;;;;;;11.35;6.80;;;9.70;99.90;;;;;;4994439;28;20072;-75
2023/04/18 07:23:42;;;;;;;12.98;6.72;;;9.80;99.90;;;;;;4990601;28;20057;-75
2023/04/18 07:26:08;;;;;;;11.50;6.97;;;9.90;99.90;;;;;;4994176;28;20034;-75
2023/04/18 07:28:34;;;;;;;13.85;7.68;;;9.90;99.90;;;;;;4993331;28;20404;-75
2023/04/18 07:31:01;;;;;;;14.52;7.57;;;10.00;99.90;;;;;;4994237;28;20018;-74
2023/04/18 07:33:30;;;;;;;12.77;7.30;;;10.00;99.90;;;;;;4994654;28;20057;-75
2023/04/18 07:35:56;;;;;;;13.88;6.78;;;10.10;99.90;;;;;;4992630;28;20606;-75
2023/04/18 07:38:22;;;;;;;11.05;6.35;;;10.20;99.90;;;;;;4994400;28;20110;-76
2023/04/18 07:40:55;;;;;;;12.65;6.80;;;10.20;99.90;;;;;;4992971;28;20510;-75
2023/04/18 07:43:21;;;;;;;13.65;6.45;;;10.20;99.90;;;;;;4992928;28;20042;-75
2023/04/18 07:45:47;;;;;;;13.00;7.20;;;10.20;99.90;;;;;;4993782;28;20026;-75
2023/04/18 07:48:13;;;;;;;13.90;6.97;;;10.30;99.90;;;;;;4992588;28;20591;-75
2023/04/18 07:50:39;;;;;;;13.48;7.72;;;10.30;99.90;;;;;;4993040;28;20034;-75
2023/04/18 07:53:05;;;;;;;13.65;7.03;;;10.30;99.90;;;;;;4992688;28;20026;-75
2023/04/18 07:55:30;;;;;;;12.07;6.95;;;10.40;99.90;;;;;;4992623;28;20498;-75
2023/04/18 07:57:56;;;;;;;12.73;7.13;;;10.50;99.90;;;;;;4992490;28;20022;-75
2023/04/18 08:00:22;;;;;;;12.02;6.88;;;10.60;99.90;;;;;;4994208;28;20361;-76
2023/04/18 08:02:47;;;;;;;13.65;7.30;;;10.70;99.90;;;;;;4992778;28;20046;-76
2023/04/18 08:05:13;;;;;;;12.23;7.32;;;10.80;99.90;;;;;;4991870;28;20112;-76
2023/04/18 08:07:39;;;;;;;11.65;6.47;;;11.00;99.90;;;;;;4992663;28;20098;-75
2023/04/18 08:10:05;;;;;;;11.23;7.20;;;11.10;99.90;;;;;;4993269;28;20026;-75
2023/04/18 08:12:31;;;;;;;11.93;7.03;;;11.10;99.90;;;;;;4994211;28;20088;-74
2023/04/18 08:14:56;;;;;;;10.70;6.40;;;11.10;99.90;;;;;;4992167;28;20023;-76
2023/04/18 08:17:22;;;;;;;12.80;7.03;;;11.10;99.90;;;;;;4993264;28;20050;-75
2023/04/18 08:19:48;;;;;;;12.50;7.22;;;11.10;99.90;;;;;;4992254;28;20026;-75
2023/04/18 08:22:14;;;;;;;12.90;7.78;;;11.10;99.90;;;;;;4991535;28;20655;-76
2023/04/18 08:24:40;;;;;;;14.65;7.30;;;11.10;99.90;;;;;;4992846;28;20430;-75
2023/04/18 08:27:05;;;;;;;14.50;7.30;;;11.00;99.90;;;;;;4991522;28;20433;-76
2023/04/18 08:29:31;;;;;;;14.38;7.93;;;11.00;99.90;;;;;;4992243;28;20058;-74
2023/04/18 08:31:57;;;;;;;13.27;7.03;;;11.10;99.90;;;;;;4991165;28;20027;-76
2023/04/18 08:34:23;;;;;;;11.75;6.85;;;11.10;99.90;;;;;;4993116;28;20041;-75
2023/04/18 08:36:50;;;;;;;12.88;7.18;;;11.20;99.90;;;;;;4991617;28;20022;-75
2023/04/18 08:39:16;;;;;;;12.57;6.82;;;11.20;99.90;;;;;;4991096;28;20289;-75
2023/04/18 08:41:42;;;;;;;13.52;6.97;;;11.20;99.90;;;;;;4991772;28;20555;-75
2023/04/18 08:44:08;;;;;;;12.73;7.15;;;11.30;99.90;;;;;;4991126;28;20049;-75
2023/04/18 08:46:34;;;;;;;12.82;7.35;;;11.30;99.90;;;;;;4992516;28;20054;-76
2023/04/18 08:49:05;;;;;;;12.15;6.90;;;11.30;99.90;;;;;;4991534;28;20045;-75
2023/04/18 08:51:32;;;;;;;11.85;7.28;;;11.30;99.90;;;;;;4972738;28;20081;-75
2023/04/18 08:54:01;;;;;;;12.30;6.93;;;11.50;99.90;;;;;;4984803;28;20041;-75
2023/04/18 08:56:27;;;;;;;13.40;7.43;;;11.50;99.90;;;;;;4991743;28;20220;-75
2023/04/18 08:58:55;;;;;;;11.60;7.20;;;11.60;99.90;;;;;;4991952;28;20037;-75
2023/04/18 09:01:21;;;;;;;14.18;7.43;;;11.60;99.90;;;;;;4993066;28;20026;-76
2023/04/18 09:03:47;;;;;;;12.00;6.72;;;11.70;99.90;;;;;;4991884;28;20113;-76
2023/04/18 09:06:17;;;;;;;12.57;7.18;;;11.60;99.90;;;;;;4990778;28;20118;-75
2023/04/18 09:09:01;;;;;;;10.35;6.50;;;11.70;99.90;;;;;;5008278;28;20035;-75
2023/04/18 09:11:29;;;;;;;11.48;6.53;;;11.70;99.90;;;;;;4991608;28;20026;-75
2023/04/18 09:13:57;;;;;;;13.63;7.20;;;11.80;99.90;;;;;;4991814;28;20034;-75
2023/04/18 09:16:23;;;;;;;13.60;6.93;;;11.90;99.90;;;;;;4991082;28;20084;-76
2023/04/18 09:19:11;;;;;;;12.15;6.90;;;12.10;99.90;;;;;;4992885;28;20022;-75
2023/04/18 09:21:39;;;;;;;12.02;7.20;;;12.10;99.90;;;;;;4991530;28;20657;-75
2023/04/18 09:24:25;;;;;;;13.85;6.85;;;12.20;99.90;;;;;;4990944;28;20038;-76
2023/04/18 09:26:54;;;;;;;11.88;7.65;;;12.30;99.90;;;;;;4990873;28;20121;-75
2023/04/18 09:29:21;;;;;;;11.80;7.43;;;12.30;99.90;;;;;;4991077;28;20022;-75
2023/04/18 09:32:00;;;;;;;14.70;7.75;;;12.40;99.90;;;;;;4983553;28;20030;-75
2023/04/18 09:34:27;;;;;;;12.52;7.32;;;12.50;99.90;;;;;;4992728;28;20439;-75
2023/04/18 09:37:06;;;;;;;11.13;6.80;;;12.60;99.90;;;;;;4992505;28;20023;-76
2023/04/18 09:39:32;;;;;;;11.32;6.32;;;12.70;99.90;;;;;;4991470;28;20030;-76
2023/04/18 09:41:59;;;;;;;12.23;7.10;;;12.70;99.90;;;;;;4992579;28;20040;-75
2023/04/18 09:44:25;;;;;;;12.68;7.22;;;12.80;99.90;;;;;;4996812;28;20034;-75
2023/04/18 09:46:50;;;;;;;12.20;7.38;;;13.00;99.90;;;;;;4994820;28;20050;-76
2023/04/18 09:49:16;;;;;;;10.98;6.60;;;13.20;99.90;;;;;;4994963;28;20054;-76
2023/04/18 09:51:45;;;;;;;11.82;6.93;;;13.30;99.90;;;;;;4995348;28;20502;-76
2023/04/18 09:54:19;;;;;;;10.50;6.78;;;13.40;99.90;;;;;;4995707;28;20061;-76
2023/04/18 09:56:46;;;;;;;10.43;6.57;;;13.50;99.90;;;;;;4995214;28;20053;-76
2023/04/18 09:59:19;;;;;;;11.35;7.03;;;13.60;99.90;;;;;;4995904;28;20097;-75
2023/04/18 10:01:47;;;;;;;11.13;7.20;;;13.50;99.90;;;;;;4995162;28;20026;-76
2023/04/18 10:04:15;;;;;;;11.93;6.40;;;13.40;99.90;;;;;;4994674;28;20038;-75
2023/04/18 10:06:41;;;;;;;10.90;6.85;;;13.20;99.90;;;;;;4996032;28;20027;-76
2023/04/18 10:09:08;;;;;;;11.20;6.82;;;13.20;99.90;;;;;;4995745;28;20170;-75
2023/04/18 10:11:35;;;;;;;11.38;6.50;;;13.10;99.90;;;;;;4994891;28;20026;-75
2023/04/18 10:14:05;;;;;;;11.80;6.60;;;13.00;99.90;;;;;;4995514;28;20396;-75
2023/04/18 10:16:32;;;;;;;10.43;6.68;;;12.90;99.90;;;;;;4996214;28;20108;-76
2023/04/18 10:19:25;;;;;;;11.43;6.50;;;12.80;99.90;;;;;;4994277;28;20029;-76
2023/04/18 10:21:54;;;;;;;10.95;6.30;;;12.90;99.90;;;;;;4996034;28;20030;-76
2023/04/18 10:24:48;;;;;;;10.93;6.07;;;13.00;99.90;;;;;;4995479;28;20036;-76
2023/04/18 10:27:38;;;;;;;10.30;6.43;;;13.00;99.90;;;;;;4980691;28;20027;-75
2023/04/18 10:30:04;;;;;;;10.88;6.97;;;13.00;99.90;;;;;;4994143;28;20026;-75
2023/04/18 10:32:30;;;;;;;11.73;6.57;;;13.00;99.90;;;;;;4995985;28;20035;-75
2023/04/18 10:34:55;;;;;;;12.18;7.00;;;13.00;99.90;;;;;;4994528;28;20076;-75
2023/04/18 10:37:21;;;;;;;11.00;6.60;;;13.00;99.90;;;;;;4994003;28;20022;-76
2023/04/18 10:39:59;;;;;;;11.75;6.97;;;13.00;99.90;;;;;;4995322;28;20023;-76
2023/04/18 10:42:46;;;;;;;10.05;6.07;;;13.10;99.90;;;;;;4995929;28;20160;-75
2023/04/18 10:45:23;;;;;;;11.57;6.75;;;13.40;99.90;;;;;;4993807;28;20049;-76
2023/04/18 10:47:49;;;;;;;10.02;6.78;;;13.70;99.90;;;;;;4995633;28;20372;-76
2023/04/18 10:50:15;;;;;;;11.25;6.72;;;13.90;99.90;;;;;;4993762;28;20037;-76
2023/04/18 10:52:42;;;;;;;13.07;6.43;;;14.00;99.90;;;;;;4994279;28;20023;-75
2023/04/18 10:55:08;;;;;;;9.85;6.32;;;14.20;99.90;;;;;;4982567;28;20050;-76
2023/04/18 10:57:41;;;;;;;11.68;6.72;;;14.20;99.90;;;;;;4995429;28;20076;-76
2023/04/18 11:00:12;;;;;;;10.07;6.30;;;14.30;99.90;;;;;;4994644;28;20044;-76
2023/04/18 11:02:39;;;;;;;12.13;6.60;;;14.40;99.90;;;;;;4995399;28;20045;-76
2023/04/18 11:05:08;;;;;;;10.30;6.43;;;14.50;99.90;;;;;;4994703;28;20026;-76
2023/04/18 11:07:45;;;;;;;12.00;6.70;;;14.70;99.90;;;;;;4995363;28;20026;-75
2023/04/18 11:10:11;;;;;;;10.20;5.97;;;14.70;99.90;;;;;;4993329;28;20064;-75
2023/04/18 11:12:40;;;;;;;10.27;6.25;;;14.60;99.90;;;;;;4993554;28;20122;-76
2023/04/18 11:15:11;;;;;;;10.48;6.10;;;14.60;99.90;;;;;;4993440;28;20037;-76
2023/04/18 11:17:38;;;;;;;8.95;5.95;;;14.50;99.90;;;;;;4993978;28;20072;-76
2023/04/18 11:20:10;;;;;;;9.13;6.13;;;14.50;99.90;;;;;;4993046;28;20093;-76
2023/04/18 11:22:49;;;;;;;8.55;5.75;;;14.50;99.90;;;;;;4993889;28;20502;-76
2023/04/18 11:25:15;;;;;;;9.85;5.65;;;14.40;99.90;;;;;;4982756;28;20117;-76
2023/04/18 11:27:46;;;;;;;10.13;6.10;;;14.50;99.90;;;;;;4994860;28;20026;-76
2023/04/18 11:30:13;;;;;;;9.60;6.18;;;14.50;99.90;;;;;;4992912;28;20038;-75
2023/04/18 11:32:39;;;;;;;11.27;6.20;;;14.50;99.90;;;;;;4993572;28;20537;-76
2023/04/18 11:35:08;;;;;;;10.02;6.13;;;14.60;99.90;;;;;;4994338;28;20134;-76
2023/04/18 11:37:36;;;;;;;9.55;6.03;;;14.70;99.90;;;;;;4994628;28;20031;-76
2023/04/18 11:40:02;;;;;;;10.50;5.90;;;14.70;99.90;;;;;;4994054;28;20026;-76
2023/04/18 11:42:31;;;;;;;9.32;6.05;;;14.70;99.90;;;;;;4994217;28;20030;-76
2023/04/18 11:44:57;;;;;;;9.55;6.10;;;14.80;99.90;;;;;;4977490;28;20075;-76
2023/04/18 11:47:32;;;;;;;10.40;5.47;;;14.90;99.90;;;;;;4992559;28;20053;-76
2023/04/18 11:50:03;;;;;;;10.13;5.78;;;15.00;99.90;;;;;;4992834;28;20030;-76
2023/04/18 11:52:30;;;;;;;9.43;5.80;;;15.00;99.90;;;;;;4994470;28;20038;-75
2023/04/18 11:55:20;;;;;;;8.05;5.45;;;14.90;99.90;;;;;;4983936;28;20034;-76
2023/04/18 11:58:00;;;;;;;8.98;5.68;;;14.90;99.90;;;;;;4985073;28;20031;-76
2023/04/18 12:00:42;;;;;;;8.18;5.53;;;14.90;99.90;;;;;;4993518;28;20034;-76
2023/04/18 12:03:16;;;;;;;8.93;5.53;;;14.70;99.90;;;;;;4992371;28;20038;-76
2023/04/18 12:05:42;;;;;;;9.90;5.57;;;14.60;99.90;;;;;;4992028;28;20034;-76
2023/04/18 12:08:13;;;;;;;8.95;5.55;;;14.50;99.90;;;;;;4993784;28;20088;-75
2023/04/18 12:10:52;;;;;;;7.47;4.68;;;14.50;99.90;;;;;;4992462;28;20034;-75
2023/04/18 12:13:22;;;;;;;8.10;5.03;;;14.40;99.90;;;;;;4993259;28;20443;-76
2023/04/18 12:15:48;;;;;;;9.03;5.17;;;14.30;99.90;;;;;;4992762;28;20041;-76
2023/04/18 12:18:17;;;;;;;11.70;5.72;;;14.20;99.90;;;;;;4992064;28;20113;-75
2023/04/18 12:20:52;;;;;;;9.20;5.65;;;14.20;99.90;;;;;;4993594;28;20085;-75
2023/04/18 12:23:39;;;;;;;11.35;5.10;;;14.20;99.90;;;;;;4991803;28;20045;-76
2023/04/18 12:26:13;;;;;;;9.00;5.20;;;14.40;99.90;;;;;;4985359;28;20550;-76
2023/04/18 12:28:38;;;;;;;9.82;5.85;;;14.70;99.90;;;;;;4992676;28;20078;-76
2023/04/18 12:31:06;;;;;;;10.07;5.88;;;14.80;99.90;;;;;;4991873;28;20498;-76
2023/04/18 12:33:32;;;;;;;9.85;5.55;;;14.80;99.90;;;;;;4992372;28;20037;-76
2023/04/18 12:35:58;;;;;;;9.00;5.45;;;14.90;99.90;;;;;;4992422;28;20026;-76
2023/04/18 12:38:23;;;;;;;7.78;4.85;;;14.90;99.90;;;;;;4991842;28;20026;-76
2023/04/18 12:40:51;;;;;;;10.00;5.80;;;14.90;99.90;;;;;;4991978;28;20543;-76
2023/04/18 12:43:17;;;;;;;9.18;5.10;;;14.90;99.90;;;;;;4991696;28;20113;-76
2023/04/18 12:45:45;;;;;;;9.80;5.50;;;14.90;99.90;;;;;;4991811;28;20368;-75